Time;durP1;ratioP1;P1;durP2;ratioP2;P2;SDS_P1;SDS_P2;PMS_P1;PMS_P2;Temp;Humidity;BMP_temperature;BMP_pressure;BME280_temperature;BME280_humidity;BME280_pressure;Samples;Min_cycle;Max_cycle;Signal;HPM_P1;HPM_P2
2022/06/01 00:00:36;;;;;;;17.65;15.25;;;;;;;;;;4981989;28;20211;-83
2022/06/01 00:03:03;;;;;;;18.75;15.30;;;;;;;;;;4979684;28;20255;-83
2022/06/01 00:05:30;;;;;;;20.63;15.18;;;;;;;;;;4979516;28;20267;-83
2022/06/01 00:07:57;;;;;;;17.45;14.43;;;;;;;;;;4981748;28;20203;-83
2022/06/01 00:10:25;;;;;;;16.30;14.57;;;;;;;;;;4977675;28;20231;-83
2022/06/01 00:12:54;;;;;;;16.73;14.10;;;;;;;;;;4980519;28;20215;-83
2022/06/01 00:15:24;;;;;;;18.23;14.38;;;;;;;;;;4981938;28;20219;-83
2022/06/01 00:17:51;;;;;;;15.32;13.48;;;;;;;;;;4980509;28;20204;-83
2022/06/01 00:20:18;;;;;;;16.13;13.52;;;;;;;;;;4980930;28;20208;-84
2022/06/01 00:22:46;;;;;;;18.00;13.43;;;;;;;;;;4981520;28;20203;-83
2022/06/01 00:25:14;;;;;;;15.63;13.63;;;;;;;;;;4981361;28;20263;-83
2022/06/01 00:27:41;;;;;;;16.15;13.18;;;;;;;;;;4982352;28;20207;-83
2022/06/01 00:30:10;;;;;;;14.90;13.20;;;;;;;;;;4975016;28;20289;-84
2022/06/01 00:32:39;;;;;;;14.98;12.85;;;;;;;;;;4977845;28;20235;-83
2022/06/01 00:35:07;;;;;;;14.45;12.63;;;;;;;;;;4976323;28;20255;-83
2022/06/01 00:37:35;;;;;;;15.98;12.85;;;;;;;;;;4985601;28;20214;-83
2022/06/01 00:40:02;;;;;;;15.18;12.32;;;;;;;;;;4982803;28;20217;-83
2022/06/01 00:42:31;;;;;;;13.98;11.73;;;;;;;;;;4983243;28;20224;-83
2022/06/01 00:44:58;;;;;;;14.02;11.88;;;;;;;;;;4977324;28;20227;-83
2022/06/01 00:47:27;;;;;;;16.75;12.57;;;;;;;;;;4984125;28;20680;-83
2022/06/01 00:49:59;;;;;;;14.38;12.00;;;;;;;;;;4984916;28;20262;-83
2022/06/01 00:52:36;;;;;;;12.82;11.15;;;;;;;;;;4980319;28;20234;-83
2022/06/01 00:55:08;;;;;;;13.27;11.27;;;;;;;;;;4980691;28;20294;-83
2022/06/01 00:57:35;;;;;;;12.55;11.15;;;;;;;;;;4982931;28;20200;-83
2022/06/01 01:00:04;;;;;;;12.15;10.65;;;;;;;;;;4981193;28;20243;-83
2022/06/01 01:02:32;;;;;;;12.77;10.82;;;;;;;;;;4983422;28;20204;-83
2022/06/01 01:05:01;;;;;;;12.32;10.95;;;;;;;;;;4984449;28;20227;-83
2022/06/01 01:07:28;;;;;;;14.05;11.05;;;;;;;;;;4984104;28;20212;-83
2022/06/01 01:09:55;;;;;;;13.68;10.65;;;;;;;;;;4985021;28;20248;-83
2022/06/01 01:12:25;;;;;;;13.82;10.70;;;;;;;;;;4982288;28;20243;-83
2022/06/01 01:14:54;;;;;;;12.00;10.23;;;;;;;;;;4985411;28;20283;-83
2022/06/01 01:17:21;;;;;;;11.23;9.68;;;;;;;;;;4985465;28;20243;-83
2022/06/01 01:19:51;;;;;;;11.95;10.02;;;;;;;;;;4983796;28;20244;-83
2022/06/01 01:22:26;;;;;;;12.55;10.38;;;;;;;;;;4984463;28;20212;-83
2022/06/01 01:25:14;;;;;;;11.80;9.95;;;;;;;;;;4983579;28;20263;-83
2022/06/01 01:27:41;;;;;;;11.88;9.68;;;;;;;;;;4982354;28;20204;-83
2022/06/01 01:30:23;;;;;;;11.68;10.25;;;;;;;;;;4983426;28;20258;-83
2022/06/01 01:32:51;;;;;;;10.32;9.18;;;;;;;;;;4980266;28;20217;-83
2022/06/01 01:35:19;;;;;;;10.13;8.98;;;;;;;;;;4984220;28;20255;-83
2022/06/01 01:37:47;;;;;;;11.40;9.88;;;;;;;;;;4983241;28;20767;-83
2022/06/01 01:40:16;;;;;;;10.40;9.25;;;;;;;;;;4978527;28;20247;-83
2022/06/01 01:42:43;;;;;;;11.05;9.52;;;;;;;;;;4994429;28;20231;-83
2022/06/01 01:45:15;;;;;;;10.68;9.57;;;;;;;;;;4996391;28;20211;-83
2022/06/01 01:47:42;;;;;;;10.95;8.88;;;;;;;;;;4983275;28;20299;-83
2022/06/01 01:50:12;;;;;;;11.60;9.27;;;;;;;;;;4978417;28;20298;-83
2022/06/01 01:52:39;;;;;;;10.65;9.07;;;;;;;;;;4979962;28;20228;-83
2022/06/01 01:55:11;;;;;;;9.27;8.38;;;;;;;;;;4981999;28;20243;-83
2022/06/01 01:57:46;;;;;;;10.65;9.05;;;;;;;;;;4972034;28;20205;-83
2022/06/01 02:00:17;;;;;;;9.25;8.25;;;;;;;;;;4978803;28;20220;-83
2022/06/01 02:02:48;;;;;;;9.50;8.43;;;;;;;;;;4980723;28;20207;-83
2022/06/01 02:08:08;;;;;;;9.38;8.38;;;;;;;;;;4981286;28;20312;-83
2022/06/01 02:13:22;;;;;;;11.48;8.45;;;;;;;;;;4981258;28;20215;-83
2022/06/01 02:15:51;;;;;;;9.10;8.00;;;;;;;;;;4982310;28;20216;-83
2022/06/01 02:18:21;;;;;;;8.77;7.88;;;;;;;;;;4990093;28;20222;-83
2022/06/01 02:20:51;;;;;;;9.63;8.05;;;;;;;;;;4992080;28;20211;-83
2022/06/01 02:23:18;;;;;;;9.15;7.97;;;;;;;;;;4983815;28;20199;-83
2022/06/01 02:25:48;;;;;;;8.38;7.43;;;;;;;;;;4991393;28;20207;-83
2022/06/01 02:28:16;;;;;;;8.43;7.53;;;;;;;;;;4995749;28;20231;-83
2022/06/01 02:30:45;;;;;;;8.20;7.35;;;;;;;;;;4994841;28;20587;-83
2022/06/01 02:33:13;;;;;;;8.77;7.57;;;;;;;;;;4988062;28;20310;-83
2022/06/01 02:35:43;;;;;;;8.18;7.32;;;;;;;;;;4987362;28;20207;-84
2022/06/01 02:38:12;;;;;;;8.45;7.50;;;;;;;;;;4985391;28;20207;-83
2022/06/01 02:40:40;;;;;;;8.65;7.78;;;;;;;;;;4984841;28;20204;-83
2022/06/01 02:43:07;;;;;;;7.78;6.97;;;;;;;;;;4980466;28;20262;-83
2022/06/01 02:45:34;;;;;;;8.82;7.78;;;;;;;;;;4981976;28;20267;-83
2022/06/01 02:48:04;;;;;;;9.20;7.97;;;;;;;;;;4981471;28;20303;-83
2022/06/01 02:50:32;;;;;;;7.53;6.43;;;;;;;;;;4982208;28;20212;-83
2022/06/01 02:53:00;;;;;;;7.97;7.15;;;;;;;;;;4981634;28;20220;-83
2022/06/01 02:55:29;;;;;;;7.80;7.07;;;;;;;;;;4982219;28;20239;-83
2022/06/01 02:57:57;;;;;;;7.90;6.93;;;;;;;;;;4982107;28;20236;-83
2022/06/01 03:00:26;;;;;;;7.72;6.70;;;;;;;;;;4976938;28;20275;-83
2022/06/01 03:02:54;;;;;;;7.50;6.72;;;;;;;;;;4978810;28;20259;-84
2022/06/01 03:05:25;;;;;;;7.57;6.72;;;;;;;;;;4978952;28;20211;-83
2022/06/01 03:07:52;;;;;;;7.43;6.70;;;;;;;;;;4979976;28;20220;-83
2022/06/01 03:10:20;;;;;;;6.72;5.90;;;;;;;;;;4981321;28;20207;-83
2022/06/01 03:12:47;;;;;;;7.40;6.45;;;;;;;;;;4978879;28;20251;-83
2022/06/01 03:15:15;;;;;;;6.72;6.07;;;;;;;;;;4979356;28;20227;-83
2022/06/01 03:17:43;;;;;;;7.93;6.50;;;;;;;;;;4977281;28;20238;-83
2022/06/01 03:20:11;;;;;;;6.68;5.97;;;;;;;;;;4981425;28;20228;-83
2022/06/01 03:22:41;;;;;;;6.85;6.03;;;;;;;;;;4978589;28;20595;-83
2022/06/01 03:25:10;;;;;;;6.35;5.70;;;;;;;;;;4977088;28;20287;-83
2022/06/01 03:27:38;;;;;;;5.95;5.43;;;;;;;;;;4981234;28;20347;-83
2022/06/01 03:30:06;;;;;;;7.53;6.13;;;;;;;;;;4981761;28;20731;-83
2022/06/01 03:32:34;;;;;;;6.63;5.93;;;;;;;;;;4979156;28;20259;-83
2022/06/01 03:35:01;;;;;;;6.38;5.57;;;;;;;;;;4974218;28;20262;-83
2022/06/01 03:37:28;;;;;;;6.22;5.63;;;;;;;;;;4980502;28;20204;-83
2022/06/01 03:39:57;;;;;;;6.47;5.82;;;;;;;;;;4974019;28;20295;-83
2022/06/01 03:42:24;;;;;;;6.20;5.60;;;;;;;;;;4980032;28;20203;-83
2022/06/01 03:47:40;;;;;;;5.82;5.32;;;;;;;;;;4981554;28;20206;-83
2022/06/01 03:50:08;;;;;;;6.10;5.50;;;;;;;;;;4974821;28;20319;-83
2022/06/01 03:52:35;;;;;;;5.72;5.22;;;;;;;;;;4974079;28;20234;-83
2022/06/01 03:55:05;;;;;;;5.78;5.15;;;;;;;;;;4974868;28;20227;-83
2022/06/01 03:57:32;;;;;;;6.18;5.68;;;;;;;;;;4976277;28;20203;-83
2022/06/01 03:59:59;;;;;;;5.78;5.20;;;;;;;;;;4974173;28;20220;-83
2022/06/01 04:02:27;;;;;;;5.80;5.20;;;;;;;;;;4970977;28;20264;-83
2022/06/01 04:04:54;;;;;;;5.38;4.88;;;;;;;;;;4975593;28;20279;-82
2022/06/01 04:07:21;;;;;;;6.03;5.07;;;;;;;;;;4978895;28;20586;-81
2022/06/01 04:09:48;;;;;;;7.40;5.25;;;;;;;;;;4996538;23;20252;-81
2022/06/01 04:12:17;;;;;;;18.60;7.03;;;;;;;;;;4988764;28;20227;-81
2022/06/01 04:14:44;;;;;;;36.47;11.85;;;;;;;;;;4986592;28;20211;-81
2022/06/01 04:17:15;;;;;;;56.75;16.83;;;;;;;;;;4980251;28;20211;-82
2022/06/01 04:19:42;;;;;;;57.95;20.33;;;;;;;;;;4968556;28;20225;-82
2022/06/01 04:22:11;;;;;;;62.90;22.17;;;;;;;;;;4959260;29;20215;-83
2022/06/01 04:24:38;;;;;;;8.85;6.40;;;;;;;;;;4961906;29;20211;-81
2022/06/01 04:27:06;;;;;;;14.40;5.90;;;;;;;;;;4964165;29;20231;-83
2022/06/01 04:29:35;;;;;;;11.43;6.43;;;;;;;;;;4957107;28;20256;-82
2022/06/01 04:32:04;;;;;;;10.48;6.38;;;;;;;;;;4965303;28;20228;-82
2022/06/01 04:34:31;;;;;;;10.60;6.07;;;;;;;;;;4963969;29;20205;-83
2022/06/01 04:36:58;;;;;;;15.18;6.68;;;;;;;;;;4960991;29;20204;-80
2022/06/01 04:39:26;;;;;;;15.25;7.20;;;;;;;;;;4963061;28;20229;-82
2022/06/01 04:41:53;;;;;;;11.75;6.78;;;;;;;;;;4959706;29;20308;-82
2022/06/01 04:44:21;;;;;;;17.98;7.28;;;;;;;;;;4956903;29;20211;-82
2022/06/01 04:46:50;;;;;;;15.48;6.10;;;;;;;;;;4959754;28;20216;-82
2022/06/01 04:49:17;;;;;;;17.48;6.18;;;;;;;;;;4966716;28;20224;-83
2022/06/01 04:51:44;;;;;;;13.25;6.30;;;;;;;;;;4959642;29;20204;-82
2022/06/01 04:54:12;;;;;;;14.50;6.43;;;;;;;;;;4961072;29;20239;-84
2022/06/01 04:56:40;;;;;;;16.95;6.32;;;;;;;;;;4960743;29;20283;-83
2022/06/01 04:59:08;;;;;;;14.00;5.97;;;;;;;;;;4945683;28;20254;-82
2022/06/01 05:01:35;;;;;;;13.30;6.28;;;;;;;;;;4950095;29;20216;-83
2022/06/01 05:04:04;;;;;;;13.05;6.35;;;;;;;;;;4959608;29;20224;-83
2022/06/01 05:06:32;;;;;;;10.52;5.95;;;;;;;;;;4959293;29;20203;-81
2022/06/01 05:08:59;;;;;;;12.25;6.07;;;;;;;;;;4955428;28;20263;-82
2022/06/01 05:11:26;;;;;;;10.20;5.50;;;;;;;;;;4956288;29;20212;-82
2022/06/01 05:13:54;;;;;;;10.48;5.75;;;;;;;;;;4954472;29;20712;-82
2022/06/01 05:16:21;;;;;;;8.90;5.40;;;;;;;;;;4957213;29;20231;-82
2022/06/01 05:18:49;;;;;;;11.50;5.70;;;;;;;;;;4955119;28;20251;-82
2022/06/01 05:21:17;;;;;;;12.80;5.53;;;;;;;;;;4952861;29;20223;-82
2022/06/01 05:23:45;;;;;;;8.55;5.63;;;;;;;;;;4956018;29;20197;-82
2022/06/01 05:26:16;;;;;;;8.93;5.43;;;;;;;;;;4953755;29;20255;-89
2022/06/01 05:28:44;;;;;;;12.65;5.40;;;;;;;;;;4949239;29;20209;-85
2022/06/01 05:31:12;;;;;;;11.73;5.70;;;;;;;;;;4952418;29;20209;-82
2022/06/01 05:33:40;;;;;;;10.05;5.50;;;;;;;;;;4958811;29;20255;-83
2022/06/01 05:36:07;;;;;;;9.85;5.25;;;;;;;;;;4959708;29;20201;-83
2022/06/01 05:38:36;;;;;;;7.25;4.82;;;;;;;;;;4954892;29;20208;-83
2022/06/01 05:41:04;;;;;;;6.15;4.78;;;;;;;;;;4959765;29;20276;-86
2022/06/01 05:43:31;;;;;;;9.82;5.20;;;;;;;;;;4956932;28;20201;-83
2022/06/01 05:45:59;;;;;;;9.02;5.32;;;;;;;;;;4958109;29;20240;-83
2022/06/01 05:48:26;;;;;;;8.43;5.00;;;;;;;;;;4954993;28;20295;-82
2022/06/01 05:50:53;;;;;;;11.15;4.55;;;;;;;;;;4953573;29;20342;-83
2022/06/01 05:53:20;;;;;;;9.52;4.78;;;;;;;;;;4954149;29;20284;-83
2022/06/01 05:55:50;;;;;;;8.27;5.13;;;;;;;;;;4959296;29;20208;-83
2022/06/01 05:58:18;;;;;;;8.43;4.78;;;;;;;;;;4953830;29;20213;-83
2022/06/01 06:00:49;;;;;;;6.72;4.82;;;;;;;;;;4959713;28;20228;-83
2022/06/01 06:03:18;;;;;;;7.32;4.65;;;;;;;;;;4960055;29;20228;-83
2022/06/01 06:08:30;;;;;;;10.18;4.88;;;;;;;;;;4961372;29;20601;-84
2022/06/01 06:10:58;;;;;;;8.63;4.50;;;;;;;;;;4961285;28;20267;-84
2022/06/01 06:13:27;;;;;;;9.02;5.03;;;;;;;;;;4961918;29;20259;-83
2022/06/01 06:15:55;;;;;;;7.07;4.47;;;;;;;;;;4962186;29;20224;-83
2022/06/01 06:18:22;;;;;;;7.38;4.40;;;;;;;;;;4962001;29;20224;-83
2022/06/01 06:20:49;;;;;;;8.30;4.85;;;;;;;;;;4961807;28;20267;-84
2022/06/01 06:23:17;;;;;;;6.22;4.50;;;;;;;;;;4960963;29;20209;-84
2022/06/01 06:25:44;;;;;;;6.50;4.30;;;;;;;;;;4961595;29;20208;-83
2022/06/01 06:28:13;;;;;;;7.78;4.30;;;;;;;;;;4959346;29;20208;-84
2022/06/01 06:30:41;;;;;;;5.85;4.47;;;;;;;;;;4961314;28;20262;-83
2022/06/01 06:33:08;;;;;;;5.43;3.90;;;;;;;;;;4960296;28;20291;-83
2022/06/01 06:35:36;;;;;;;7.50;4.40;;;;;;;;;;4960304;29;20300;-83
2022/06/01 06:38:04;;;;;;;7.70;4.05;;;;;;;;;;4961414;29;20208;-84
2022/06/01 06:40:31;;;;;;;5.28;3.92;;;;;;;;;;4960202;28;20235;-83
2022/06/01 06:43:02;;;;;;;5.03;3.80;;;;;;;;;;4960011;29;20224;-83
2022/06/01 06:45:31;;;;;;;5.68;4.20;;;;;;;;;;4959513;29;20219;-84
2022/06/01 06:47:58;;;;;;;6.45;4.00;;;;;;;;;;4960014;29;20271;-84
2022/06/01 06:50:26;;;;;;;5.88;4.10;;;;;;;;;;4958911;28;20229;-83
2022/06/01 06:52:53;;;;;;;5.75;3.78;;;;;;;;;;4959536;29;20349;-84
2022/06/01 06:55:20;;;;;;;5.53;3.90;;;;;;;;;;4959494;29;20216;-83
2022/06/01 06:57:48;;;;;;;5.78;3.95;;;;;;;;;;4959810;29;20232;-83
2022/06/01 07:00:16;;;;;;;5.43;4.38;;;;;;;;;;4959868;28;20235;-83
2022/06/01 07:02:44;;;;;;;6.93;3.80;;;;;;;;;;4959189;29;20271;-84
2022/06/01 07:06:08;;;;;;;4.75;3.72;;;;;;;;;;4959434;29;20209;-84
2022/06/01 07:07:59;;;;;;;4.85;3.70;;;;;;;;;;4958852;29;20577;-83
2022/06/01 07:10:26;;;;;;;6.53;4.15;;;;;;;;;;4959516;28;20240;-83
2022/06/01 07:12:54;;;;;;;5.85;3.80;;;;;;;;;;4959513;29;20236;-83
2022/06/01 07:15:21;;;;;;;5.57;3.90;;;;;;;;;;4959710;29;20208;-83
2022/06/01 07:17:52;;;;;;;4.22;3.72;;;;;;;;;;4959415;29;20215;-84
2022/06/01 07:20:21;;;;;;;4.35;3.50;;;;;;;;;;4957209;28;20267;-83
2022/06/01 07:22:48;;;;;;;5.47;3.58;;;;;;;;;;4958468;29;20208;-83
2022/06/01 07:25:15;;;;;;;5.22;3.55;;;;;;;;;;4958920;29;20267;-83
2022/06/01 07:27:43;;;;;;;4.72;3.38;;;;;;;;;;4958836;29;20235;-83
2022/06/01 07:30:11;;;;;;;5.00;3.00;;;;;;;;;;4959510;28;20232;-84
2022/06/01 07:32:39;;;;;;;6.32;3.75;;;;;;;;;;4958038;29;20216;-83
2022/06/01 07:35:09;;;;;;;5.82;3.72;;;;;;;;;;4959042;29;20287;-83
2022/06/01 07:43:10;;;;;;;4.32;3.42;;;;;;;;;;4958894;29;20211;-84
2022/06/01 07:45:38;;;;;;;4.07;3.05;;;;;;;;;;4962159;28;20216;-84
2022/06/01 07:48:06;;;;;;;6.18;3.80;;;;;;;;;;4965083;29;20240;-84
2022/06/01 07:50:35;;;;;;;5.53;3.40;;;;;;;;;;4965449;28;20236;-84
2022/06/01 07:53:03;;;;;;;4.78;3.58;;;;;;;;;;4964305;29;20224;-83
2022/06/01 07:55:30;;;;;;;4.80;3.40;;;;;;;;;;4963121;29;20209;-84
2022/06/01 07:57:58;;;;;;;3.58;3.28;;;;;;;;;;4963483;29;20216;-82
2022/06/01 08:00:25;;;;;;;4.10;3.40;;;;;;;;;;4963308;28;20232;-84
2022/06/01 08:02:52;;;;;;;4.65;3.80;;;;;;;;;;4962793;29;20242;-84
2022/06/01 08:05:21;;;;;;;4.15;3.55;;;;;;;;;;4962166;29;20224;-84
2022/06/01 08:07:50;;;;;;;4.03;2.97;;;;;;;;;;4962921;29;20220;-84
2022/06/01 08:10:19;;;;;;;5.95;3.60;;;;;;;;;;4963819;28;20241;-84
2022/06/01 08:15:32;;;;;;;3.70;3.05;;;;;;;;;;4963041;29;20203;-84
2022/06/01 08:17:59;;;;;;;3.42;3.03;;;;;;;;;;4955870;29;20619;-83
2022/06/01 08:20:27;;;;;;;3.83;3.47;;;;;;;;;;4956653;29;20232;-84
2022/06/01 08:22:56;;;;;;;4.28;3.15;;;;;;;;;;4956043;29;20275;-83
2022/06/01 08:25:24;;;;;;;4.03;3.45;;;;;;;;;;4957034;29;20213;-83
2022/06/01 08:27:51;;;;;;;4.50;3.08;;;;;;;;;;4956313;29;20208;-84
2022/06/01 08:30:21;;;;;;;2.97;2.75;;;;;;;;;;4955867;29;20228;-84
2022/06/01 08:32:49;;;;;;;5.00;3.10;;;;;;;;;;4961649;29;20209;-84
2022/06/01 08:35:18;;;;;;;3.90;3.00;;;;;;;;;;4962686;29;20200;-84
2022/06/01 08:37:46;;;;;;;3.28;2.97;;;;;;;;;;4956957;29;20209;-84
2022/06/01 08:40:16;;;;;;;3.30;3.00;;;;;;;;;;4962486;28;20346;-83
2022/06/01 08:42:47;;;;;;;3.42;3.10;;;;;;;;;;4961067;29;20239;-84
2022/06/01 08:45:14;;;;;;;3.70;2.90;;;;;;;;;;4961721;29;20227;-84
2022/06/01 08:47:42;;;;;;;3.45;3.15;;;;;;;;;;4961148;29;20216;-83
2022/06/01 08:50:13;;;;;;;3.20;2.90;;;;;;;;;;4961547;28;20232;-84
2022/06/01 08:52:41;;;;;;;3.33;2.60;;;;;;;;;;4961498;29;20216;-84
2022/06/01 08:55:08;;;;;;;4.18;2.72;;;;;;;;;;4960391;28;20225;-83
2022/06/01 08:57:47;;;;;;;3.10;2.67;;;;;;;;;;4960654;29;20248;-83
2022/06/01 09:00:16;;;;;;;4.18;3.13;;;;;;;;;;4960838;28;20231;-83
2022/06/01 09:02:47;;;;;;;3.22;2.92;;;;;;;;;;4960546;29;20216;-83
2022/06/01 09:05:18;;;;;;;3.65;2.53;;;;;;;;;;4960408;29;20288;-83
2022/06/01 09:07:49;;;;;;;3.28;2.83;;;;;;;;;;4961186;29;20236;-82
2022/06/01 09:10:27;;;;;;;3.72;2.90;;;;;;;;;;4960735;28;20267;-84
2022/06/01 09:12:59;;;;;;;3.20;2.90;;;;;;;;;;4959868;29;20216;-84
2022/06/01 09:15:27;;;;;;;2.65;2.40;;;;;;;;;;4961790;29;20239;-84
2022/06/01 09:17:55;;;;;;;3.50;2.75;;;;;;;;;;4961181;29;20232;-84
2022/06/01 09:23:10;;;;;;;3.42;2.90;;;;;;;;;;4959856;29;20302;-84
2022/06/01 09:25:38;;;;;;;3.35;2.65;;;;;;;;;;4960269;29;20212;-84
2022/06/01 09:28:18;;;;;;;3.20;2.88;;;;;;;;;;4960613;29;20208;-84
2022/06/01 09:30:46;;;;;;;2.85;2.55;;;;;;;;;;4959540;28;20247;-84
2022/06/01 09:33:18;;;;;;;3.35;2.70;;;;;;;;;;4960106;29;20208;-83
2022/06/01 09:35:46;;;;;;;3.50;2.70;;;;;;;;;;4960514;29;20645;-83
2022/06/01 09:38:19;;;;;;;3.15;2.60;;;;;;;;;;4961265;29;20244;-84
2022/06/01 09:40:46;;;;;;;2.95;2.65;;;;;;;;;;4960260;28;20221;-83
2022/06/01 09:43:31;;;;;;;3.63;2.55;;;;;;;;;;4959633;29;20280;-84
2022/06/01 09:46:00;;;;;;;2.67;2.47;;;;;;;;;;4960974;29;20214;-83
2022/06/01 09:48:29;;;;;;;3.65;2.58;;;;;;;;;;4959548;29;20208;-83
2022/06/01 09:51:03;;;;;;;2.70;2.40;;;;;;;;;;4960318;28;20327;-84
2022/06/01 09:53:37;;;;;;;2.95;2.60;;;;;;;;;;4960323;29;20223;-84
2022/06/01 09:56:05;;;;;;;3.78;2.42;;;;;;;;;;4960566;29;20204;-83
2022/06/01 10:06:51;;;;;;;4.15;2.70;;;;;;;;;;4958900;28;20331;-84
2022/06/01 10:09:22;;;;;;;7.47;3.03;;;;;;;;;;4960972;28;20267;-82
2022/06/01 10:11:51;;;;;;;12.75;3.45;;;;;;;;;;4990607;23;20271;-85
2022/06/01 10:14:20;;;;;;;22.08;3.63;;;;;;;;;;4954359;29;20220;-84
2022/06/01 10:17:05;;;;;;;7.60;3.10;;;;;;;;;;4957851;29;20239;-85
2022/06/01 10:19:35;;;;;;;9.93;3.53;;;;;;;;;;4958361;29;20295;-86
2022/06/01 10:22:04;;;;;;;4.20;3.58;;;;;;;;;;4955663;28;20264;-87
2022/06/01 10:24:44;;;;;;;8.88;3.90;;;;;;;;;;4955209;29;20208;-86
2022/06/01 10:27:12;;;;;;;4.13;3.60;;;;;;;;;;4957961;29;20213;-83
2022/06/01 10:29:48;;;;;;;4.55;3.20;;;;;;;;;;4960680;29;20209;-83
2022/06/01 10:32:25;;;;;;;3.85;3.50;;;;;;;;;;5004815;23;20295;-83
2022/06/01 10:34:58;;;;;;;4.68;3.17;;;;;;;;;;4981727;28;20224;-82
2022/06/01 10:37:30;;;;;;;3.92;3.00;;;;;;;;;;4979757;28;20206;-82
2022/06/01 10:40:01;;;;;;;5.50;4.32;;;;;;;;;;4975803;28;20212;-82
2022/06/01 10:45:16;;;;;;;10.93;6.65;;;;;;;;;;4963392;28;20193;-83
2022/06/01 10:47:59;;;;;;;12.65;7.25;;;;;;;;;;4977570;28;20208;-82
2022/06/01 10:50:49;;;;;;;10.77;6.05;;;;;;;;;;4969420;28;20239;-83
2022/06/01 10:53:20;;;;;;;10.43;6.50;;;;;;;;;;4957284;28;20214;-85
2022/06/01 10:55:48;;;;;;;10.88;5.35;;;;;;;;;;4953580;28;20221;-83
2022/06/01 10:58:23;;;;;;;8.85;5.65;;;;;;;;;;4962782;28;20696;-85
2022/06/01 11:00:54;;;;;;;12.60;5.82;;;;;;;;;;4955196;28;20246;-85
2022/06/01 11:03:33;;;;;;;9.02;5.20;;;;;;;;;;4968383;28;20212;-87
2022/06/01 11:06:26;;;;;;;6.88;4.88;;;;;;;;;;4955878;28;20711;-88
2022/06/01 11:08:57;;;;;;;8.75;4.80;;;;;;;;;;4962639;28;20218;-85
2022/06/01 11:11:30;;;;;;;7.05;4.18;;;;;;;;;;4965011;28;20233;-85
2022/06/01 11:14:20;;;;;;;5.78;4.20;;;;;;;;;;4968999;28;20286;-85
2022/06/01 11:16:54;;;;;;;4.35;3.47;;;;;;;;;;4966075;28;20208;-84
2022/06/01 11:19:49;;;;;;;4.97;3.80;;;;;;;;;;4955654;28;20203;-86
2022/06/01 11:23:04;;;;;;;;;;;;;;;;;;;;;
2022/06/01 11:28:57;;;;;;;5.25;3.10;;;;;;;;;;4815313;29;20240;-85
2022/06/01 11:34:55;;;;;;;3.38;2.75;;;;;;;;;;4868185;29;20214;-86
2022/06/01 11:37:50;;;;;;;;;;;;;;;;;;;;;
2022/06/01 11:40:51;;;;;;;5.03;2.83;;;;;;;;;;4896705;29;20198;-85
2022/06/01 11:49:44;;;;;;;4.38;2.60;;;;;;;;;;4822052;29;20704;-83
2022/06/01 11:52:32;;;;;;;6.05;2.13;;;;;;;;;;4840179;29;20236;-86
2022/06/01 11:58:07;;;;;;;4.05;1.48;;;;;;;;;;4838920;29;20264;-84
2022/06/01 12:00:36;;;;;;;3.10;1.80;;;;;;;;;;4840120;29;20212;-84
2022/06/01 12:03:35;;;;;;;3.92;1.70;;;;;;;;;;4840789;29;20201;-84
2022/06/01 12:06:07;;;;;;;1.95;1.67;;;;;;;;;;4847153;29;20209;-84
2022/06/01 12:08:38;;;;;;;4.15;1.60;;;;;;;;;;4849498;29;20220;-84
2022/06/01 12:11:10;;;;;;;4.90;1.70;;;;;;;;;;4861768;29;20229;-85
2022/06/01 12:13:52;;;;;;;1.63;1.50;;;;;;;;;;4915569;29;20209;-82
2022/06/01 12:16:24;;;;;;;2.53;1.60;;;;;;;;;;4955523;29;20197;-82
2022/06/01 12:19:03;;;;;;;2.88;1.80;;;;;;;;;;4962063;29;20215;-84
2022/06/01 12:21:46;;;;;;;3.05;1.70;;;;;;;;;;4960890;29;20584;-83
2022/06/01 12:30:10;;;;;;;2.83;1.70;;;;;;;;;;4961339;28;20204;-82
2022/06/01 12:33:03;;;;;;;1.88;1.73;;;;;;;;;;4967880;29;20244;-81
2022/06/01 12:35:31;;;;;;;2.45;1.80;;;;;;;;;;4949690;29;20734;-82
2022/06/01 12:38:03;;;;;;;3.50;1.80;;;;;;;;;;4963859;29;20219;-82
2022/06/01 12:40:30;;;;;;;2.22;1.70;;;;;;;;;;4965059;29;20219;-82
2022/06/01 12:43:02;;;;;;;4.03;1.70;;;;;;;;;;4962497;29;20212;-82
2022/06/01 12:45:39;;;;;;;2.42;1.80;;;;;;;;;;4962916;29;20267;-82
2022/06/01 12:48:10;;;;;;;2.60;1.67;;;;;;;;;;4962836;29;20734;-83
2022/06/01 12:50:47;;;;;;;3.03;1.70;;;;;;;;;;4964994;29;20212;-82
2022/06/01 12:53:17;;;;;;;2.22;2.03;;;;;;;;;;4961861;29;20205;-82
2022/06/01 12:55:45;;;;;;;1.83;1.73;;;;;;;;;;4963181;29;20241;-83
2022/06/01 12:58:20;;;;;;;2.85;1.90;;;;;;;;;;4964075;29;20218;-86
2022/06/01 13:00:56;;;;;;;2.35;1.58;;;;;;;;;;4963951;29;20236;-83
2022/06/01 13:03:24;;;;;;;2.38;1.58;;;;;;;;;;4963573;29;20220;-82
2022/06/01 13:05:52;;;;;;;2.42;1.75;;;;;;;;;;4962773;29;20204;-81
2022/06/01 13:08:23;;;;;;;4.82;1.65;;;;;;;;;;4963367;29;20216;-81
2022/06/01 13:10:51;;;;;;;2.08;1.60;;;;;;;;;;4962950;29;20240;-81
2022/06/01 13:13:23;;;;;;;2.38;1.67;;;;;;;;;;4958418;29;20201;-81
2022/06/01 13:16:02;;;;;;;2.67;1.90;;;;;;;;;;4962200;29;20312;-82
2022/06/01 13:18:36;;;;;;;2.40;1.85;;;;;;;;;;4962533;29;20209;-83
2022/06/01 13:21:09;;;;;;;2.72;1.75;;;;;;;;;;4962201;29;20319;-84
2022/06/01 13:23:46;;;;;;;2.28;1.85;;;;;;;;;;4962241;29;20216;-84
2022/06/01 13:26:20;;;;;;;1.70;1.60;;;;;;;;;;4957773;29;20224;-85
2022/06/01 13:28:59;;;;;;;2.65;2.10;;;;;;;;;;4962039;29;20216;-84
2022/06/01 13:31:26;;;;;;;3.05;1.92;;;;;;;;;;4963609;29;20242;-85
2022/06/01 13:34:09;;;;;;;2.55;1.98;;;;;;;;;;4964846;29;20235;-84
2022/06/01 13:36:58;;;;;;;2.65;1.88;;;;;;;;;;4966578;29;20228;-84
2022/06/01 13:39:35;;;;;;;1.83;1.73;;;;;;;;;;4961104;29;20263;-84
2022/06/01 13:42:08;;;;;;;2.03;1.80;;;;;;;;;;4963281;28;20236;-84
2022/06/01 13:44:51;;;;;;;1.85;1.67;;;;;;;;;;4954593;29;20204;-84
2022/06/01 13:47:29;;;;;;;1.95;1.85;;;;;;;;;;4961307;29;20236;-84
2022/06/01 13:50:01;;;;;;;4.68;1.75;;;;;;;;;;4954706;29;20226;-85
2022/06/01 13:52:35;;;;;;;3.15;1.73;;;;;;;;;;4954797;29;20259;-84
2022/06/01 13:55:18;;;;;;;2.33;1.83;;;;;;;;;;4961508;29;20236;-84
2022/06/01 13:57:54;;;;;;;2.42;1.67;;;;;;;;;;4963905;29;20263;-84
2022/06/01 14:00:26;;;;;;;2.65;1.60;;;;;;;;;;4962409;29;20286;-85
2022/06/01 14:03:07;;;;;;;2.03;1.83;;;;;;;;;;4962449;29;20271;-84
2022/06/01 14:05:37;;;;;;;1.90;1.80;;;;;;;;;;4964428;29;20243;-85
2022/06/01 14:08:06;;;;;;;1.90;1.80;;;;;;;;;;4958319;29;20227;-84
2022/06/01 14:10:36;;;;;;;1.90;1.80;;;;;;;;;;4962772;29;20223;-85
2022/06/01 14:13:05;;;;;;;2.42;1.90;;;;;;;;;;4961022;29;20264;-84
2022/06/01 14:15:33;;;;;;;1.90;1.70;;;;;;;;;;4956855;29;20331;-84
2022/06/01 14:18:01;;;;;;;2.65;1.70;;;;;;;;;;4964374;29;20252;-85
2022/06/01 14:20:33;;;;;;;1.85;1.70;;;;;;;;;;4964748;29;20246;-84
2022/06/01 14:23:00;;;;;;;5.75;2.13;;;;;;;;;;4964364;29;20208;-85
2022/06/01 14:28:30;;;;;;;4.32;2.50;;;;;;;;;;4958469;29;20200;-84
2022/06/01 14:30:57;;;;;;;7.90;3.65;;;;;;;;;;4957209;29;20255;-83
2022/06/01 14:33:34;;;;;;;7.85;3.33;;;;;;;;;;4961994;29;20309;-84
2022/06/01 14:36:03;;;;;;;7.10;3.28;;;;;;;;;;4955677;29;20247;-83
2022/06/01 14:38:34;;;;;;;6.32;3.42;;;;;;;;;;4960142;29;20224;-84
2022/06/01 14:41:12;;;;;;;7.80;3.53;;;;;;;;;;4962469;29;20232;-84
2022/06/01 14:43:41;;;;;;;9.52;4.00;;;;;;;;;;4952591;29;20212;-85
2022/06/01 14:46:21;;;;;;;6.35;3.55;;;;;;;;;;4959795;29;20207;-84
2022/06/01 14:49:09;;;;;;;5.18;3.53;;;;;;;;;;4957353;29;20210;-83
2022/06/01 14:51:40;;;;;;;7.78;4.20;;;;;;;;;;4950293;29;20291;-85
2022/06/01 14:54:16;;;;;;;9.48;4.35;;;;;;;;;;4950698;29;20201;-85
2022/06/01 14:56:50;;;;;;;11.45;5.20;;;;;;;;;;4947832;29;20312;-84
2022/06/01 14:59:29;;;;;;;10.05;5.30;;;;;;;;;;4955613;29;20306;-85
2022/06/01 15:04:53;;;;;;;10.90;5.65;;;;;;;;;;4930788;29;20212;-84
2022/06/01 15:07:24;;;;;;;11.23;7.70;;;;;;;;;;4960677;29;20209;-85
2022/06/01 15:10:04;;;;;;;12.55;7.55;;;;;;;;;;4953808;29;20268;-85
2022/06/01 15:12:37;;;;;;;10.15;7.07;;;;;;;;;;4956930;29;20315;-84
2022/06/01 15:15:11;;;;;;;15.05;8.52;;;;;;;;;;4955166;29;20224;-84
2022/06/01 15:17:46;;;;;;;17.60;9.35;;;;;;;;;;4957049;29;20196;-84
2022/06/01 15:20:22;;;;;;;13.98;9.15;;;;;;;;;;4965084;29;20203;-84
2022/06/01 15:26:01;;;;;;;;;;;;;;;;;;;;;
2022/06/01 15:39:43;;;;;;;19.77;11.98;;;;;;;;;;4958129;29;20231;-84
2022/06/01 15:42:12;;;;;;;16.63;11.10;;;;;;;;;;4954327;29;20245;-85
2022/06/01 15:44:47;;;;;;;15.25;11.02;;;;;;;;;;4955749;29;20208;-84
2022/06/01 15:47:21;;;;;;;18.75;12.20;;;;;;;;;;4961015;29;20287;-84
2022/06/01 15:49:53;;;;;;;19.02;13.35;;;;;;;;;;4953041;29;20208;-84
2022/06/01 15:52:24;;;;;;;18.20;12.70;;;;;;;;;;4955530;29;20251;-84
2022/06/01 15:54:55;;;;;;;33.67;25.58;;;;;;;;;;4949579;29;20291;-84
2022/06/01 15:57:29;;;;;;;45.83;34.60;;;;;;;;;;4957364;29;20264;-89
2022/06/01 15:59:57;;;;;;;59.42;41.35;;;;;;;;;;4952585;29;20212;-83
2022/06/01 16:05:21;;;;;;;40.03;29.80;;;;;;;;;;4921951;29;20200;-85
2022/06/01 16:07:55;;;;;;;34.83;24.98;;;;;;;;;;4955990;29;20207;-85
2022/06/01 16:10:24;;;;;;;35.15;22.98;;;;;;;;;;4953901;28;20228;-85
2022/06/01 16:13:03;;;;;;;31.27;19.02;;;;;;;;;;4956421;28;20229;-88
2022/06/01 16:15:41;;;;;;;44.47;30.38;;;;;;;;;;5009177;23;20239;-83
2022/06/01 16:18:10;;;;;;;41.13;29.63;;;;;;;;;;4982770;28;20215;-83
2022/06/01 16:20:43;;;;;;;52.22;32.13;;;;;;;;;;4983327;28;20203;-83